createdAt,value
2023-01-26T04:29:12.597Z,54.44
2023-01-26T04:31:42.370Z,46.36
2023-01-26T04:34:13.837Z,44.69
2023-01-26T04:36:41.092Z,44.00
2023-01-26T04:39:08.119Z,43.33
2023-01-26T04:41:37.896Z,42.57
2023-01-26T04:44:08.392Z,42.26
2023-01-26T04:46:35.607Z,41.91
2023-01-26T04:49:03.431Z,41.66
2023-01-26T04:51:30.289Z,41.37
2023-01-26T04:53:57.046Z,41.14
2023-01-26T04:56:25.870Z,41.15
2023-01-26T04:58:53.103Z,41.03
2023-01-26T05:01:20.965Z,40.84
2023-01-26T05:03:48.391Z,40.76
2023-01-26T05:06:15.468Z,40.81
2023-01-26T05:08:45.162Z,40.87
2023-01-26T05:11:12.423Z,40.86
2023-01-26T05:13:53.390Z,40.86
2023-01-26T05:16:36.667Z,40.83
2023-01-26T05:19:08.668Z,40.84
2023-01-26T05:21:46.224Z,40.74
2023-01-26T05:24:13.502Z,40.74
2023-01-26T05:27:17.464Z,40.42
2023-01-26T05:29:45.437Z,40.32
2023-01-26T05:32:12.185Z,40.29
2023-01-26T05:34:39.623Z,39.90
2023-01-26T05:37:06.812Z,39.45
2023-01-26T05:39:34.704Z,39.00
2023-01-26T05:42:04.890Z,38.88
2023-01-26T05:44:50.114Z,38.42
2023-01-26T05:47:17.251Z,38.25
2023-01-26T05:49:50.286Z,38.01
2023-01-26T05:52:21.950Z,38.05
2023-01-26T05:54:50.476Z,37.95
2023-01-26T05:57:17.695Z,38.02
2023-01-26T05:59:49.948Z,37.62
2023-01-26T06:02:17.530Z,37.63
2023-01-26T06:04:44.945Z,37.61
2023-01-26T06:07:13.080Z,37.41
2023-01-26T06:09:48.208Z,37.54
2023-01-26T06:12:22.176Z,37.47
2023-01-26T06:14:51.565Z,37.74
2023-01-26T06:17:18.518Z,37.68
2023-01-26T06:19:48.857Z,37.71
2023-01-26T06:22:16.380Z,37.72
2023-01-26T06:24:47.081Z,37.85
2023-01-26T06:27:17.269Z,37.85
2023-01-26T06:29:45.231Z,37.86
2023-01-26T06:32:13.227Z,38.18
2023-01-26T06:34:40.785Z,38.07
2023-01-26T06:37:08.116Z,38.37
2023-01-26T06:39:37.775Z,38.66
2023-01-26T06:42:04.628Z,38.45
2023-01-26T06:44:32.056Z,38.67
2023-01-26T06:46:58.789Z,38.95
2023-01-26T06:49:25.680Z,39.04
2023-01-26T06:52:03.667Z,38.86
2023-01-26T06:54:50.081Z,38.82
2023-01-26T06:57:19.594Z,38.97
2023-01-26T07:00:14.354Z,39.23
2023-01-26T07:02:55.470Z,39.00
2023-01-26T07:05:22.200Z,39.07
2023-01-26T07:07:50.150Z,39.63
2023-01-26T07:10:22.556Z,39.85
2023-01-26T07:12:49.459Z,39.83
2023-01-26T07:15:16.615Z,40.26
2023-01-26T07:17:44.074Z,40.33
2023-01-26T07:20:11.397Z,40.42
2023-01-26T07:22:38.715Z,40.15
2023-01-26T07:25:07.583Z,40.06
2023-01-26T07:27:34.579Z,40.00
2023-01-26T07:30:01.553Z,40.02
2023-01-26T07:32:28.740Z,39.83
2023-01-26T07:34:55.708Z,39.85
2023-01-26T07:37:22.455Z,39.75
2023-01-26T07:39:50.764Z,39.60
2023-01-26T07:42:17.839Z,39.54
2023-01-26T07:44:59.142Z,39.46
2023-01-26T07:47:25.963Z,39.43
2023-01-26T07:49:52.669Z,39.34
2023-01-26T12:36:00.474Z,44.30
2023-01-26T12:38:36.684Z,37.82
2023-01-26T12:41:10.273Z,36.36
2023-01-26T12:43:52.473Z,35.67
2023-01-26T12:46:19.454Z,34.98
2023-01-26T12:49:04.184Z,34.75
2023-01-26T12:51:34.119Z,34.60
2023-01-26T12:54:22.393Z,34.30
2023-01-26T12:56:51.356Z,33.99
2023-01-26T12:59:28.229Z,33.92
2023-01-26T13:02:23.327Z,33.82
2023-01-26T13:04:50.284Z,33.82
2023-01-26T13:07:33.814Z,33.72
2023-01-26T13:10:07.837Z,33.57
2023-01-26T13:12:52.131Z,33.49
2023-01-26T13:15:23.811Z,33.81
2023-01-26T13:17:51.939Z,33.72
2023-01-26T13:20:44.975Z,33.72
2023-01-26T13:23:27.892Z,34.02
2023-01-26T13:26:17.949Z,34.03
2023-01-26T13:28:45.583Z,33.85
2023-01-26T13:31:12.772Z,33.81
2023-01-26T13:33:42.008Z,33.90
2023-01-26T13:36:15.475Z,34.15
2023-01-26T13:39:03.519Z,34.39
2023-01-26T13:41:32.045Z,34.34
2023-01-26T13:44:08.598Z,34.25
2023-01-26T13:46:40.517Z,34.20
2023-01-26T13:49:24.633Z,34.25
2023-01-26T13:51:51.713Z,34.29
2023-01-26T13:54:18.797Z,34.06
2023-01-26T13:57:05.951Z,34.25
2023-01-26T13:59:33.904Z,34.39
2023-01-26T14:02:01.093Z,34.24
2023-01-26T14:04:31.642Z,34.41
2023-01-26T14:07:01.621Z,34.37
2023-01-26T14:09:31.030Z,34.37
2023-01-26T14:12:03.133Z,34.32
2023-01-26T14:14:35.364Z,34.44
2023-01-26T14:17:22.986Z,34.52
2023-01-26T14:19:49.700Z,34.69
2023-01-26T14:22:18.400Z,34.74
2023-01-26T14:24:50.055Z,34.91
2023-01-26T14:27:32.321Z,34.87
2023-01-26T14:29:59.811Z,34.95
2023-01-26T14:32:29.430Z,34.98
2023-01-26T14:35:00.365Z,34.87
2023-01-26T14:37:27.932Z,35.18
2023-01-26T14:46:47.623Z,35.17
2023-01-26T14:49:17.735Z,35.13
2023-01-26T14:51:46.303Z,35.12
2023-01-26T14:54:33.791Z,35.12
2023-01-26T14:57:02.479Z,35.03
2023-01-26T14:59:38.631Z,34.95
2023-01-26T15:02:19.237Z,35.14
2023-01-26T15:04:52.607Z,35.04
2023-01-26T15:07:22.478Z,35.13
2023-01-26T15:09:54.683Z,35.18
2023-01-26T15:12:23.173Z,35.00
2023-01-26T15:21:20.332Z,35.43
2023-01-26T15:23:52.678Z,35.50
2023-01-26T15:26:35.461Z,35.65
2023-01-26T15:29:05.264Z,35.68
2023-01-26T15:31:38.270Z,35.71
2023-01-26T15:34:06.781Z,35.94
2023-01-26T15:36:49.477Z,35.88
2023-01-26T15:39:18.765Z,35.87
2023-01-26T15:41:59.537Z,35.98
2023-01-26T15:44:27.916Z,35.95
2023-01-26T15:46:59.464Z,35.98
2023-01-26T15:49:27.748Z,36.06
2023-01-26T15:51:55.829Z,36.04
2023-01-26T15:54:24.197Z,36.16
2023-01-26T15:56:52.623Z,36.26
2023-01-26T15:59:20.868Z,36.32
2023-01-26T16:01:49.061Z,36.29
2023-01-26T16:04:17.284Z,36.23
2023-01-26T16:06:45.412Z,36.39
2023-01-26T16:09:13.724Z,36.47
2023-01-26T20:10:06.529Z,52.67
2023-01-26T20:12:36.227Z,44.38
2023-01-26T20:15:04.833Z,42.61
2023-01-26T20:17:31.804Z,41.46
2023-01-26T20:19:58.755Z,40.70
2023-01-26T20:22:33.051Z,40.16
2023-01-26T20:25:00.200Z,39.50
2023-01-26T20:27:28.971Z,39.20
2023-01-26T20:29:55.752Z,39.01
2023-01-26T20:32:22.819Z,38.68
2023-01-26T20:34:51.393Z,38.42
2023-01-26T20:37:18.770Z,38.06
2023-01-26T20:39:46.990Z,38.02
2023-01-26T20:42:16.117Z,37.76
2023-01-26T20:44:43.540Z,37.58
2023-01-26T20:47:10.704Z,37.54
2023-01-26T20:49:42.069Z,37.22
2023-01-26T20:52:09.320Z,37.08
2023-01-26T20:54:36.364Z,36.75
2023-01-26T20:57:03.507Z,36.74
2023-01-26T20:59:30.481Z,36.70
2023-01-26T21:01:57.393Z,36.65
2023-01-26T21:04:24.474Z,36.61
2023-01-26T21:06:53.694Z,36.60
2023-01-26T21:09:20.535Z,36.44
2023-01-26T21:11:49.185Z,36.49
2023-01-26T21:14:16.009Z,36.44
2023-01-26T21:16:44.891Z,36.49
2023-01-26T21:19:11.662Z,36.37
2023-01-26T21:21:38.603Z,36.31
2023-01-26T21:24:06.893Z,36.12
2023-01-26T21:26:34.550Z,35.92
2023-01-26T21:29:01.992Z,35.98
2023-01-26T21:31:30.533Z,36.04
2023-01-26T21:33:57.637Z,35.83
2023-01-26T21:36:26.900Z,35.69
2023-01-26T21:38:55.549Z,35.83
2023-01-26T21:41:42.957Z,35.92
2023-01-26T21:44:23.699Z,36.19
2023-01-26T21:46:52.655Z,36.30
2023-01-26T21:49:19.768Z,36.37
2023-01-26T21:52:06.227Z,36.41
2023-01-26T21:54:34.364Z,36.49
2023-01-26T21:57:01.921Z,36.22
2023-01-26T21:59:31.429Z,36.06
2023-01-26T22:01:58.268Z,36.07
2023-01-26T22:04:27.344Z,36.12
2023-01-26T22:06:55.364Z,36.10
2023-01-26T22:09:23.401Z,36.09
2023-01-26T22:11:50.632Z,36.14
2023-01-26T22:14:21.528Z,35.89
2023-01-26T22:16:51.668Z,35.92
2023-01-26T22:19:19.264Z,36.02
2023-01-26T22:21:45.925Z,36.08
2023-01-26T22:24:13.735Z,36.01
2023-01-26T22:26:40.827Z,35.88
2023-01-26T22:29:09.866Z,35.89
2023-01-26T22:31:37.058Z,35.91
2023-01-26T22:34:04.785Z,36.04
2023-01-26T22:36:32.837Z,36.21
2023-01-26T22:39:00.122Z,36.17
